Terminal Aerodrome Forecast
Issued by NWS

Home | Current Version | Previous Version | Text Only | Print | Product List | Glossary On
Versions: 1 2 3 4 5 6 7 8 9 10 11 12 13 14 15 16 17 18
224
FTUS42 TJSJ 230007 AAA
TAFJBQ
TAF AMD
TJBQ 230007Z 2300/2324 09015G25KT P6SM VCSH SCT030 BKN060
      TEMPO 2300/2303 BKN025
     FM231400 08020G30KT P6SM SCT030 SCT050
     FM232300 09014KT P6SM VCSH SCT030
      AMD NOT SKED 2302/2311=

USA.gov is the U.S. government's official web portal to all federal, state and local government web resources and services.